sensor_id;sensor_type;location;lat;lon;timestamp;pressure;altitude;pressure_sealevel;temperature;humidity
16030;BME280;34770;49.272;11.070;2023-01-04T00:01:29;98996.66;;;0.14;100.00
16030;BME280;34770;49.272;11.070;2023-01-04T00:03:55;98993.66;;;0.15;100.00
16030;BME280;34770;49.272;11.070;2023-01-04T00:06:20;98974.63;;;0.04;100.00
16030;BME280;34770;49.272;11.070;2023-01-04T00:08:48;98977.81;;;0.18;100.00
16030;BME280;34770;49.272;11.070;2023-01-04T00:11:18;98885.06;;;-0.56;100.00
16030;BME280;34770;49.272;11.070;2023-01-04T00:13:45;98891.94;;;-0.53;100.00
16030;BME280;34770;49.272;11.070;2023-01-04T00:16:17;98906.03;;;-0.39;100.00
16030;BME280;34770;49.272;11.070;2023-01-04T00:18:44;98863.38;;;-0.62;100.00
16030;BME280;34770;49.272;11.070;2023-01-04T00:21:12;98841.50;;;-0.62;100.00
16030;BME280;34770;49.272;11.070;2023-01-04T00:23:39;98986.66;;;0.25;100.00
16030;BME280;34770;49.272;11.070;2023-01-04T00:26:16;98977.38;;;0.31;100.00
16030;BME280;34770;49.272;11.070;2023-01-04T00:28:43;98873.16;;;-0.44;100.00
16030;BME280;34770;49.272;11.070;2023-01-04T00:31:12;98969.59;;;0.18;100.00
16030;BME280;34770;49.272;11.070;2023-01-04T00:33:38;98966.91;;;0.23;100.00
16030;BME280;34770;49.272;11.070;2023-01-04T00:36:09;98996.38;;;0.38;100.00
16030;BME280;34770;49.272;11.070;2023-01-04T00:38:36;98975.84;;;0.40;100.00
16030;BME280;34770;49.272;11.070;2023-01-04T00:41:02;98973.72;;;0.47;100.00
16030;BME280;34770;49.272;11.070;2023-01-04T00:43:28;98960.06;;;0.53;100.00
16030;BME280;34770;49.272;11.070;2023-01-04T00:45:54;98972.13;;;0.57;100.00
16030;BME280;34770;49.272;11.070;2023-01-04T00:48:20;98966.72;;;0.62;100.00
16030;BME280;34770;49.272;11.070;2023-01-04T00:50:48;98977.75;;;0.72;100.00
16030;BME280;34770;49.272;11.070;2023-01-04T00:53:15;98972.63;;;0.81;100.00
16030;BME280;34770;49.272;11.070;2023-01-04T00:55:41;98982.00;;;0.85;100.00
16030;BME280;34770;49.272;11.070;2023-01-04T00:58:06;98970.25;;;0.90;100.00
16030;BME280;34770;49.272;11.070;2023-01-04T01:00:33;98968.09;;;0.97;100.00
16030;BME280;34770;49.272;11.070;2023-01-04T01:02:59;98948.91;;;0.97;100.00
16030;BME280;34770;49.272;11.070;2023-01-04T01:05:25;98953.34;;;1.08;100.00
16030;BME280;34770;49.272;11.070;2023-01-04T01:07:51;98954.47;;;1.13;100.00
16030;BME280;34770;49.272;11.070;2023-01-04T01:10:16;98948.69;;;1.09;100.00
16030;BME280;34770;49.272;11.070;2023-01-04T01:12:42;98954.47;;;1.13;100.00
16030;BME280;34770;49.272;11.070;2023-01-04T01:15:08;98939.66;;;1.14;100.00
16030;BME280;34770;49.272;11.070;2023-01-04T01:17:33;98955.63;;;1.22;100.00
16030;BME280;34770;49.272;11.070;2023-01-04T01:20:00;98950.16;;;1.27;100.00
16030;BME280;34770;49.272;11.070;2023-01-04T01:22:26;98938.91;;;1.23;100.00
16030;BME280;34770;49.272;11.070;2023-01-04T01:24:51;98935.38;;;1.28;100.00
16030;BME280;34770;49.272;11.070;2023-01-04T01:27:17;98947.50;;;1.42;100.00
16030;BME280;34770;49.272;11.070;2023-01-04T01:29:42;98945.59;;;1.43;100.00
16030;BME280;34770;49.272;11.070;2023-01-04T01:32:08;98949.72;;;1.46;100.00
16030;BME280;34770;49.272;11.070;2023-01-04T01:34:33;98957.97;;;1.46;100.00
16030;BME280;34770;49.272;11.070;2023-01-04T01:36:59;98937.88;;;1.35;100.00
16030;BME280;34770;49.272;11.070;2023-01-04T01:39:24;98938.47;;;1.42;100.00
16030;BME280;34770;49.272;11.070;2023-01-04T01:41:50;98937.41;;;1.48;100.00
16030;BME280;34770;49.272;11.070;2023-01-04T01:47:09;98926.41;;;1.48;100.00
16030;BME280;34770;49.272;11.070;2023-01-04T01:49:37;98949.25;;;1.59;100.00
16030;BME280;34770;49.272;11.070;2023-01-04T01:52:06;98942.63;;;1.55;100.00
16030;BME280;34770;49.272;11.070;2023-01-04T01:54:36;98936.84;;;1.51;100.00
16030;BME280;34770;49.272;11.070;2023-01-04T01:57:06;98944.00;;;1.52;100.00
16030;BME280;34770;49.272;11.070;2023-01-04T01:59:37;98941.22;;;1.47;100.00
16030;BME280;34770;49.272;11.070;2023-01-04T02:02:05;98935.44;;;1.43;100.00
16030;BME280;34770;49.272;11.070;2023-01-04T02:04:31;98922.00;;;1.42;100.00
16030;BME280;34770;49.272;11.070;2023-01-04T02:06:57;98925.28;;;1.39;100.00
16030;BME280;34770;49.272;11.070;2023-01-04T02:09:24;98945.38;;;1.55;100.00
16030;BME280;34770;49.272;11.070;2023-01-04T02:11:50;98940.16;;;1.53;100.00
16030;BME280;34770;49.272;11.070;2023-01-04T02:14:17;98942.09;;;1.53;100.00
16030;BME280;34770;49.272;11.070;2023-01-04T02:23:01;98950.13;;;1.70;100.00
16030;BME280;34770;49.272;11.070;2023-01-04T02:31:38;98933.38;;;1.82;100.00
16030;BME280;34770;49.272;11.070;2023-01-04T02:39:31;98906.00;;;2.07;100.00
16030;BME280;34770;49.272;11.070;2023-01-04T02:42:15;98909.28;;;1.99;100.00
16030;BME280;34770;49.272;11.070;2023-01-04T02:44:51;98914.50;;;2.06;100.00
16030;BME280;34770;49.272;11.070;2023-01-04T02:47:37;98902.97;;;2.14;100.00
16030;BME280;34770;49.272;11.070;2023-01-04T02:50:49;98903.28;;;2.18;100.00
16030;BME280;34770;49.272;11.070;2023-01-04T02:53:36;98914.78;;;2.10;100.00
16030;BME280;34770;49.272;11.070;2023-01-04T02:56:14;98910.94;;;2.11;100.00
16030;BME280;34770;49.272;11.070;2023-01-04T03:01:34;98907.66;;;2.09;100.00
16030;BME280;34770;49.272;11.070;2023-01-04T03:09:44;98902.19;;;2.09;100.00
16030;BME280;34770;49.272;11.070;2023-01-04T03:12:17;98895.03;;;2.07;100.00
16030;BME280;34770;49.272;11.070;2023-01-04T03:15:24;98896.69;;;2.09;100.00
16030;BME280;34770;49.272;11.070;2023-01-04T03:17:56;98903.28;;;2.13;100.00
16030;BME280;34770;49.272;11.070;2023-01-04T03:20:27;98859.28;;;1.87;100.00
16030;BME280;34770;49.272;11.070;2023-01-04T03:22:59;98898.88;;;2.01;100.00
16030;BME280;34770;49.272;11.070;2023-01-04T03:25:51;98887.03;;;2.06;100.00
16030;BME280;34770;49.272;11.070;2023-01-04T03:28:38;98879.06;;;2.04;100.00
16030;BME280;34770;49.272;11.070;2023-01-04T03:31:27;98877.44;;;2.14;100.00
16030;BME280;34770;49.272;11.070;2023-01-04T03:34:13;98883.47;;;2.11;100.00
16030;BME280;34770;49.272;11.070;2023-01-04T03:42:48;98884.03;;;2.23;100.00
16030;BME280;34770;49.272;11.070;2023-01-04T03:45:47;98870.59;;;2.21;100.00
16030;BME280;34770;49.272;11.070;2023-01-04T03:48:47;98866.19;;;2.31;100.00
16030;BME280;34770;49.272;11.070;2023-01-04T03:51:14;98871.97;;;2.34;100.00
16030;BME280;34770;49.272;11.070;2023-01-04T03:56:35;98853.81;;;2.33;100.00
16030;BME280;34770;49.272;11.070;2023-01-04T03:59:01;98854.09;;;2.37;100.00
16030;BME280;34770;49.272;11.070;2023-01-04T04:01:27;98832.66;;;2.29;100.00
16030;BME280;34770;49.272;11.070;2023-01-04T04:03:53;98859.88;;;2.46;100.00
16030;BME280;34770;49.272;11.070;2023-01-04T04:06:37;98837.91;;;2.41;100.00
16030;BME280;34770;49.272;11.070;2023-01-04T04:09:21;98834.59;;;2.33;100.00
16030;BME280;34770;49.272;11.070;2023-01-04T04:11:47;98843.66;;;2.49;100.00
16030;BME280;34770;49.272;11.070;2023-01-04T04:14:13;98843.38;;;2.56;100.00
16030;BME280;34770;49.272;11.070;2023-01-04T04:16:38;98814.50;;;2.48;100.00
16030;BME280;34770;49.272;11.070;2023-01-04T04:19:04;98831.28;;;2.62;100.00
16030;BME280;34770;49.272;11.070;2023-01-04T04:21:29;98824.69;;;2.63;100.00
16030;BME280;34770;49.272;11.070;2023-01-04T04:23:55;98827.97;;;2.55;100.00
16030;BME280;34770;49.272;11.070;2023-01-04T04:26:21;98813.69;;;2.63;100.00
16030;BME280;34770;49.272;11.070;2023-01-04T04:28:47;98827.41;;;2.68;100.00
16030;BME280;34770;49.272;11.070;2023-01-04T04:31:13;98825.47;;;2.69;100.00
16030;BME280;34770;49.272;11.070;2023-01-04T04:33:38;98815.84;;;2.71;100.00
16030;BME280;34770;49.272;11.070;2023-01-04T04:36:04;98822.47;;;2.70;100.00
16030;BME280;34770;49.272;11.070;2023-01-04T04:38:30;98807.06;;;2.69;100.00
16030;BME280;34770;49.272;11.070;2023-01-04T04:40:56;98812.00;;;2.72;100.00
16030;BME280;34770;49.272;11.070;2023-01-04T04:43:40;98809.00;;;2.74;100.00
16030;BME280;34770;49.272;11.070;2023-01-04T04:46:06;98788.91;;;2.68;100.00
16030;BME280;34770;49.272;11.070;2023-01-04T04:48:31;98818.28;;;2.83;100.00
16030;BME280;34770;49.272;11.070;2023-01-04T04:50:56;98818.56;;;2.87;100.00
16030;BME280;34770;49.272;11.070;2023-01-04T04:53:22;98808.13;;;2.79;100.00
16030;BME280;34770;49.272;11.070;2023-01-04T04:55:52;98808.94;;;2.84;100.00
16030;BME280;34770;49.272;11.070;2023-01-04T04:58:17;98796.34;;;2.73;100.00
16030;BME280;34770;49.272;11.070;2023-01-04T05:00:43;98796.03;;;2.80;100.00
16030;BME280;34770;49.272;11.070;2023-01-04T05:03:08;98805.66;;;2.77;100.00
16030;BME280;34770;49.272;11.070;2023-01-04T05:05:34;98816.63;;;2.82;100.00
16030;BME280;34770;49.272;11.070;2023-01-04T05:07:59;98811.72;;;2.79;100.00
16030;BME280;34770;49.272;11.070;2023-01-04T05:10:25;98797.44;;;2.72;100.00
16030;BME280;34770;49.272;11.070;2023-01-04T05:12:50;98801.28;;;2.71;100.00
16030;BME280;34770;49.272;11.070;2023-01-04T05:15:32;98791.38;;;2.70;100.00
16030;BME280;34770;49.272;11.070;2023-01-04T05:17:58;98793.03;;;2.71;100.00
16030;BME280;34770;49.272;11.070;2023-01-04T05:20:24;98788.34;;;2.71;100.00
16030;BME280;34770;49.272;11.070;2023-01-04T05:22:49;98782.56;;;2.78;100.00
16030;BME280;34770;49.272;11.070;2023-01-04T05:25:15;98783.41;;;2.74;100.00
16030;BME280;34770;49.272;11.070;2023-01-04T05:27:41;98772.97;;;2.76;100.00
16030;BME280;34770;49.272;11.070;2023-01-04T05:30:07;98761.13;;;2.75;100.00
16030;BME280;34770;49.272;11.070;2023-01-04T05:32:52;98762.50;;;2.78;100.00
16030;BME280;34770;49.272;11.070;2023-01-04T05:35:18;98781.16;;;2.86;100.00
16030;BME280;34770;49.272;11.070;2023-01-04T05:37:43;98778.66;;;2.90;100.00
16030;BME280;34770;49.272;11.070;2023-01-04T05:40:09;98790.25;;;2.86;100.00
16030;BME280;34770;49.272;11.070;2023-01-04T05:42:34;98774.59;;;2.82;100.00
16030;BME280;34770;49.272;11.070;2023-01-04T05:45:00;98785.31;;;2.78;100.00
16030;BME280;34770;49.272;11.070;2023-01-04T05:47:26;98779.56;;;2.69;100.00
16030;BME280;34770;49.272;11.070;2023-01-04T05:49:52;98794.97;;;2.70;100.00
16030;BME280;34770;49.272;11.070;2023-01-04T05:52:18;98783.97;;;2.65;100.00
16030;BME280;34770;49.272;11.070;2023-01-04T05:54:44;98786.44;;;2.72;100.00
16030;BME280;34770;49.272;11.070;2023-01-04T05:57:10;98777.94;;;2.63;100.00
16030;BME280;34770;49.272;11.070;2023-01-04T05:59:36;98774.09;;;2.59;100.00
16030;BME280;34770;49.272;11.070;2023-01-04T06:02:01;98789.53;;;2.50;100.00
16030;BME280;34770;49.272;11.070;2023-01-04T06:04:27;98782.91;;;2.46;100.00
16030;BME280;34770;49.272;11.070;2023-01-04T06:06:53;98786.50;;;2.46;100.00
16030;BME280;34770;49.272;11.070;2023-01-04T06:09:18;98789.81;;;2.38;100.00
16030;BME280;34770;49.272;11.070;2023-01-04T06:11:44;98782.94;;;2.30;100.00
16030;BME280;34770;49.272;11.070;2023-01-04T06:14:09;98773.06;;;2.14;100.00
16030;BME280;34770;49.272;11.070;2023-01-04T06:16:35;98763.44;;;2.06;100.00
16030;BME280;34770;49.272;11.070;2023-01-04T06:19:01;98755.78;;;1.98;100.00
16030;BME280;34770;49.272;11.070;2023-01-04T06:21:26;98770.31;;;1.98;100.00
16030;BME280;34770;49.272;11.070;2023-01-04T06:23:52;98767.03;;;2.06;100.00
16030;BME280;34770;49.272;11.070;2023-01-04T06:26:17;98765.09;;;2.02;100.00
16030;BME280;34770;49.272;11.070;2023-01-04T06:28:43;98740.66;;;1.90;100.00
16030;BME280;34770;49.272;11.070;2023-01-04T06:31:10;98759.06;;;2.10;100.00
16030;BME280;34770;49.272;11.070;2023-01-04T06:33:35;98736.81;;;1.96;100.00
16030;BME280;34770;49.272;11.070;2023-01-04T06:36:01;98755.47;;;2.10;100.00
16030;BME280;34770;49.272;11.070;2023-01-04T06:38:26;98757.69;;;2.18;100.00
16030;BME280;34770;49.272;11.070;2023-01-04T06:40:52;98735.72;;;2.13;100.00
16030;BME280;34770;49.272;11.070;2023-01-04T06:43:18;98738.72;;;2.21;100.00
16030;BME280;34770;49.272;11.070;2023-01-04T06:45:43;98735.97;;;2.32;100.00
16030;BME280;34770;49.272;11.070;2023-01-04T06:48:09;98737.63;;;2.33;100.00
16030;BME280;34770;49.272;11.070;2023-01-04T06:50:35;98718.41;;;2.22;100.00
16030;BME280;34770;49.272;11.070;2023-01-04T06:53:00;98720.31;;;2.27;100.00
16030;BME280;34770;49.272;11.070;2023-01-04T06:55:26;98720.28;;;2.32;100.00
16030;BME280;34770;49.272;11.070;2023-01-04T06:57:51;98724.72;;;2.28;100.00
16030;BME280;34770;49.272;11.070;2023-01-04T07:00:17;98722.50;;;2.30;100.00
16030;BME280;34770;49.272;11.070;2023-01-04T07:02:42;98726.91;;;2.36;100.00
16030;BME280;34770;49.272;11.070;2023-01-04T07:05:08;98719.75;;;2.35;100.00
16030;BME280;34770;49.272;11.070;2023-01-04T07:07:33;98718.63;;;2.42;100.00
16030;BME280;34770;49.272;11.070;2023-01-04T07:09:59;98696.38;;;2.38;100.00
16030;BME280;34770;49.272;11.070;2023-01-04T07:12:25;98709.53;;;2.51;100.00
16030;BME280;34770;49.272;11.070;2023-01-04T07:14:50;98712.53;;;2.55;100.00
16030;BME280;34770;49.272;11.070;2023-01-04T07:17:18;98703.44;;;2.65;100.00
16030;BME280;34770;49.272;11.070;2023-01-04T07:19:44;98712.75;;;2.69;100.00
16030;BME280;34770;49.272;11.070;2023-01-04T07:22:09;98711.09;;;2.68;100.00
16030;BME280;34770;49.272;11.070;2023-01-04T07:24:36;98693.00;;;2.67;100.00
16030;BME280;34770;49.272;11.070;2023-01-04T07:27:01;98687.44;;;2.77;100.00
16030;BME280;34770;49.272;11.070;2023-01-04T07:29:27;98694.03;;;2.81;100.00
16030;BME280;34770;49.272;11.070;2023-01-04T07:31:52;98691.53;;;2.85;100.00
16030;BME280;34770;49.272;11.070;2023-01-04T07:34:20;98696.97;;;2.95;100.00
16030;BME280;34770;49.272;11.070;2023-01-04T07:36:47;98689.78;;;2.99;100.00
16030;BME280;34770;49.272;11.070;2023-01-04T07:39:13;98681.00;;;3.02;100.00
16030;BME280;34770;49.272;11.070;2023-01-04T07:41:39;98647.81;;;2.89;100.00
16030;BME280;34770;49.272;11.070;2023-01-04T07:44:06;98669.34;;;3.16;100.00
16030;BME280;34770;49.272;11.070;2023-01-04T07:46:33;98681.38;;;3.30;100.00
16030;BME280;34770;49.272;11.070;2023-01-04T07:48:59;98682.94;;;3.42;100.00
16030;BME280;34770;49.272;11.070;2023-01-04T07:51:24;98682.31;;;3.50;100.00
16030;BME280;34770;49.272;11.070;2023-01-04T07:53:50;98680.56;;;3.64;100.00
16030;BME280;34770;49.272;11.070;2023-01-04T07:56:16;98672.56;;;3.68;100.00
16030;BME280;34770;49.272;11.070;2023-01-04T07:58:41;98658.09;;;3.81;100.00
16030;BME280;34770;49.272;11.070;2023-01-04T08:01:16;98666.84;;;3.89;100.00
16030;BME280;34770;49.272;11.070;2023-01-04T08:03:44;98657.53;;;3.85;100.00
16030;BME280;34770;49.272;11.070;2023-01-04T08:06:11;98669.22;;;4.01;100.00
16030;BME280;34770;49.272;11.070;2023-01-04T08:08:37;98644.59;;;3.85;100.00
16030;BME280;34770;49.272;11.070;2023-01-04T08:11:07;98660.97;;;4.01;100.00
16030;BME280;34770;49.272;11.070;2023-01-04T08:13:33;98652.94;;;4.04;100.00
16030;BME280;34770;49.272;11.070;2023-01-04T08:15:59;98651.78;;;4.10;100.00
16030;BME280;34770;49.272;11.070;2023-01-04T08:18:24;98653.06;;;4.18;100.00
16030;BME280;34770;49.272;11.070;2023-01-04T08:20:49;98648.03;;;4.25;100.00
16030;BME280;34770;49.272;11.070;2023-01-04T08:23:15;98634.38;;;4.15;100.00
16030;BME280;34770;49.272;11.070;2023-01-04T08:25:41;98620.91;;;4.13;100.00
16030;BME280;34770;49.272;11.070;2023-01-04T08:28:06;98637.47;;;4.32;100.00
16030;BME280;34770;49.272;11.070;2023-01-04T08:30:31;98641.34;;;4.31;100.00
16030;BME280;34770;49.272;11.070;2023-01-04T08:32:57;98639.34;;;4.37;100.00
16030;BME280;34770;49.272;11.070;2023-01-04T08:35:23;98643.81;;;4.33;100.00
16030;BME280;34770;49.272;11.070;2023-01-04T08:37:48;98624.31;;;4.24;100.00
16030;BME280;34770;49.272;11.070;2023-01-04T08:40:14;98636.81;;;4.41;100.00
16030;BME280;34770;49.272;11.070;2023-01-04T08:42:39;98633.50;;;4.44;100.00
16030;BME280;34770;49.272;11.070;2023-01-04T08:45:07;98622.94;;;4.51;100.00
16030;BME280;34770;49.272;11.070;2023-01-04T08:47:44;98624.56;;;4.52;100.00
16030;BME280;34770;49.272;11.070;2023-01-04T08:50:10;98623.44;;;4.53;100.00
16030;BME280;34770;49.272;11.070;2023-01-04T08:52:35;98616.47;;;4.61;100.00
16030;BME280;34770;49.272;11.070;2023-01-04T08:55:01;98609.84;;;4.62;100.00
16030;BME280;34770;49.272;11.070;2023-01-04T08:57:26;98609.53;;;4.63;100.00
16030;BME280;34770;49.272;11.070;2023-01-04T08:59:51;98608.94;;;4.67;100.00
16030;BME280;34770;49.272;11.070;2023-01-04T09:04:42;98594.69;;;4.78;100.00
16030;BME280;34770;49.272;11.070;2023-01-04T09:07:07;98589.72;;;4.81;100.00
16030;BME280;34770;49.272;11.070;2023-01-04T09:09:32;98583.59;;;4.84;100.00
16030;BME280;34770;49.272;11.070;2023-01-04T09:11:58;98590.63;;;4.95;100.00
16030;BME280;34770;49.272;11.070;2023-01-04T09:14:23;98571.88;;;4.92;100.00
16030;BME280;34770;49.272;11.070;2023-01-04T09:16:49;98572.78;;;5.06;100.00
16030;BME280;34770;49.272;11.070;2023-01-04T09:19:14;98566.69;;;5.09;100.00
16030;BME280;34770;49.272;11.070;2023-01-04T09:21:39;98565.47;;;5.16;100.00
16030;BME280;34770;49.272;11.070;2023-01-04T09:24:05;98556.78;;;5.22;100.00
16030;BME280;34770;49.272;11.070;2023-01-04T09:26:31;98561.41;;;5.27;100.00
16030;BME280;34770;49.272;11.070;2023-01-04T09:28:56;98568.41;;;5.38;100.00
16030;BME280;34770;49.272;11.070;2023-01-04T09:31:25;98569.34;;;5.48;100.00
16030;BME280;34770;49.272;11.070;2023-01-04T09:33:50;98586.88;;;5.57;100.00
16030;BME280;34770;49.272;11.070;2023-01-04T09:36:18;98582.91;;;5.63;100.00
16030;BME280;34770;49.272;11.070;2023-01-04T09:38:44;98585.19;;;5.75;100.00
16030;BME280;34770;49.272;11.070;2023-01-04T09:41:19;98566.56;;;5.81;100.00
16030;BME280;34770;49.272;11.070;2023-01-04T09:43:50;98561.16;;;5.89;100.00
16030;BME280;34770;49.272;11.070;2023-01-04T09:46:44;98554.41;;;5.96;100.00
16030;BME280;34770;49.272;11.070;2023-01-04T09:54:57;98496.97;;;5.93;100.00
16030;BME280;34770;49.272;11.070;2023-01-04T09:57:26;98536.91;;;6.14;100.00
16030;BME280;34770;49.272;11.070;2023-01-04T09:59:59;98538.44;;;6.20;100.00
16030;BME280;34770;49.272;11.070;2023-01-04T10:02:41;98496.47;;;5.90;100.00
16030;BME280;34770;49.272;11.070;2023-01-04T10:05:13;98462.09;;;5.69;100.00
16030;BME280;34770;49.272;11.070;2023-01-04T10:07:41;98568.97;;;6.29;100.00
16030;BME280;34770;49.272;11.070;2023-01-04T10:10:13;98512.28;;;6.04;100.00
16030;BME280;34770;49.272;11.070;2023-01-04T10:18:08;98469.78;;;6.00;100.00
16030;BME280;34770;49.272;11.070;2023-01-04T10:25:54;98523.16;;;6.51;100.00
16030;BME280;34770;49.272;11.070;2023-01-04T10:35:58;98502.06;;;6.55;100.00
16030;BME280;34770;49.272;11.070;2023-01-04T10:38:31;98508.16;;;6.66;100.00
16030;BME280;34770;49.272;11.070;2023-01-04T10:40:58;98506.59;;;6.74;100.00
16030;BME280;34770;49.272;11.070;2023-01-04T10:43:48;98469.06;;;6.59;100.00
16030;BME280;34770;49.272;11.070;2023-01-04T10:49:10;98484.66;;;6.77;100.00
16030;BME280;34770;49.272;11.070;2023-01-04T10:51:44;98479.31;;;6.81;100.00
16030;BME280;34770;49.272;11.070;2023-01-04T10:54:32;98449.56;;;6.64;100.00
16030;BME280;34770;49.272;11.070;2023-01-04T10:59:58;98472.34;;;6.83;100.00
16030;BME280;34770;49.272;11.070;2023-01-04T11:08:04;98461.66;;;6.91;100.00
16030;BME280;34770;49.272;11.070;2023-01-04T11:10:41;98454.97;;;6.92;100.00
16030;BME280;34770;49.272;11.070;2023-01-04T11:13:09;98450.56;;;6.91;100.00
16030;BME280;34770;49.272;11.070;2023-01-04T11:15:35;98449.31;;;6.97;100.00
16030;BME280;34770;49.272;11.070;2023-01-04T11:18:02;98441.94;;;6.92;100.00
16030;BME280;34770;49.272;11.070;2023-01-04T11:20:30;98427.31;;;6.92;100.00
16030;BME280;34770;49.272;11.070;2023-01-04T11:23:02;98447.25;;;7.02;100.00
16030;BME280;34770;49.272;11.070;2023-01-04T11:25:34;98424.03;;;6.90;100.00
16030;BME280;34770;49.272;11.070;2023-01-04T11:30:55;98415.84;;;7.07;100.00
16030;BME280;34770;49.272;11.070;2023-01-04T11:33:23;98442.63;;;7.21;100.00
16030;BME280;34770;49.272;11.070;2023-01-04T11:35:54;98437.78;;;7.26;100.00
16030;BME280;34770;49.272;11.070;2023-01-04T11:38:26;98439.91;;;7.29;100.00
16030;BME280;34770;49.272;11.070;2023-01-04T11:41:05;98431.97;;;7.37;100.00
16030;BME280;34770;49.272;11.070;2023-01-04T11:43:38;98426.09;;;7.38;100.00
16030;BME280;34770;49.272;11.070;2023-01-04T11:50:56;98389.81;;;7.48;100.00
16030;BME280;34770;49.272;11.070;2023-01-04T11:53:28;98399.63;;;7.63;100.00
16030;BME280;34770;49.272;11.070;2023-01-04T11:56:23;98396.25;;;7.66;100.00
16030;BME280;34770;49.272;11.070;2023-01-04T11:59:11;98383.69;;;7.60;100.00
16030;BME280;34770;49.272;11.070;2023-01-04T12:01:42;98390.88;;;7.70;99.37
16030;BME280;34770;49.272;11.070;2023-01-04T12:04:15;98404.06;;;7.73;98.81
16030;BME280;34770;49.272;11.070;2023-01-04T12:09:14;98371.63;;;7.65;98.27
16030;BME280;34770;49.272;11.070;2023-01-04T12:16:56;98392.88;;;7.87;99.77
16030;BME280;34770;49.272;11.070;2023-01-04T12:19:24;98387.50;;;7.91;100.00
16030;BME280;34770;49.272;11.070;2023-01-04T12:22:01;98308.03;;;7.51;98.42
16030;BME280;34770;49.272;11.070;2023-01-04T12:24:30;98379.53;;;7.98;99.09
16030;BME280;34770;49.272;11.070;2023-01-04T12:26:56;98333.50;;;7.71;99.26
16030;BME280;34770;49.272;11.070;2023-01-04T12:50:10;98339.91;;;8.24;97.48
16030;BME280;34770;49.272;11.070;2023-01-04T12:52:47;98347.41;;;8.32;96.78
16030;BME280;34770;49.272;11.070;2023-01-04T12:57:49;98329.59;;;8.24;97.40
16030;BME280;34770;49.272;11.070;2023-01-04T13:00:15;98342.03;;;8.36;97.55
16030;BME280;34770;49.272;11.070;2023-01-04T13:02:45;98320.97;;;8.26;97.39
16030;BME280;34770;49.272;11.070;2023-01-04T13:07:46;98329.78;;;8.45;97.02
16030;BME280;34770;49.272;11.070;2023-01-04T13:13:19;98322.25;;;8.46;97.31
16030;BME280;34770;49.272;11.070;2023-01-04T13:18:58;98320.16;;;8.52;97.73
16030;BME280;34770;49.272;11.070;2023-01-04T13:21:37;98287.66;;;8.43;97.43
16030;BME280;34770;49.272;11.070;2023-01-04T13:24:20;98285.72;;;8.35;97.70
16030;BME280;34770;49.272;11.070;2023-01-04T13:26:48;98281.81;;;8.45;97.64
16030;BME280;34770;49.272;11.070;2023-01-04T13:29:21;98282.63;;;8.45;98.08
16030;BME280;34770;49.272;11.070;2023-01-04T13:31:53;98278.38;;;8.39;98.48
16030;BME280;34770;49.272;11.070;2023-01-04T13:34:31;98286.88;;;8.43;98.98
16030;BME280;34770;49.272;11.070;2023-01-04T13:39:37;98276.75;;;8.38;98.64
16030;BME280;34770;49.272;11.070;2023-01-04T13:42:04;98275.13;;;8.37;99.55
16030;BME280;34770;49.272;11.070;2023-01-04T13:44:46;98270.72;;;8.36;99.25
16030;BME280;34770;49.272;11.070;2023-01-04T13:47:17;98291.13;;;8.40;99.38
16030;BME280;34770;49.272;11.070;2023-01-04T13:49:43;98282.13;;;8.43;99.02
16030;BME280;34770;49.272;11.070;2023-01-04T13:52:25;98289.97;;;8.41;99.27
16030;BME280;34770;49.272;11.070;2023-01-04T13:55:21;98283.44;;;8.37;99.86
16030;BME280;34770;49.272;11.070;2023-01-04T14:00:29;98259.31;;;8.29;100.00
16030;BME280;34770;49.272;11.070;2023-01-04T14:05:45;98269.72;;;8.41;100.00
16030;BME280;34770;49.272;11.070;2023-01-04T14:08:13;98274.13;;;8.42;100.00
16030;BME280;34770;49.272;11.070;2023-01-04T14:10:42;98263.69;;;8.39;100.00
16030;BME280;34770;49.272;11.070;2023-01-04T14:13:16;98236.16;;;8.25;100.00
16030;BME280;34770;49.272;11.070;2023-01-04T14:15:43;98263.03;;;8.42;100.00
16030;BME280;34770;49.272;11.070;2023-01-04T14:18:26;98249.66;;;8.35;100.00
16030;BME280;34770;49.272;11.070;2023-01-04T14:20:52;98264.00;;;8.46;100.00
16030;BME280;34770;49.272;11.070;2023-01-04T14:23:25;98254.72;;;8.51;100.00
16030;BME280;34770;49.272;11.070;2023-01-04T14:25:51;98253.72;;;8.55;100.00
16030;BME280;34770;49.272;11.070;2023-01-04T14:28:25;98259.78;;;8.57;100.00
16030;BME280;34770;49.272;11.070;2023-01-04T14:33:31;98261.88;;;8.69;100.00
16030;BME280;34770;49.272;11.070;2023-01-04T14:38:43;98256.75;;;8.80;100.00
16030;BME280;34770;49.272;11.070;2023-01-04T14:41:30;98251.03;;;8.76;100.00
16030;BME280;34770;49.272;11.070;2023-01-04T14:46:31;98244.00;;;8.88;100.00
16030;BME280;34770;49.272;11.070;2023-01-04T14:48:57;98234.34;;;8.94;100.00
16030;BME280;34770;49.272;11.070;2023-01-04T14:51:31;98244.16;;;8.91;100.00
16030;BME280;34770;49.272;11.070;2023-01-04T14:53:57;98239.84;;;9.03;100.00
16030;BME280;34770;49.272;11.070;2023-01-04T14:56:23;98209.00;;;8.96;100.00
16030;BME280;34770;49.272;11.070;2023-01-04T14:58:48;98210.78;;;9.00;100.00
16030;BME280;34770;49.272;11.070;2023-01-04T15:01:13;98240.84;;;8.98;100.00
16030;BME280;34770;49.272;11.070;2023-01-04T15:03:39;98222.38;;;9.02;100.00
16030;BME280;34770;49.272;11.070;2023-01-04T15:06:05;98204.94;;;8.93;100.00
16030;BME280;34770;49.272;11.070;2023-01-04T15:08:31;98225.81;;;8.99;100.00
16030;BME280;34770;49.272;11.070;2023-01-04T15:10:57;98219.59;;;9.02;100.00
16030;BME280;34770;49.272;11.070;2023-01-04T15:13:22;98228.38;;;9.04;100.00
16030;BME280;34770;49.272;11.070;2023-01-04T15:15:48;98199.69;;;9.00;100.00
16030;BME280;34770;49.272;11.070;2023-01-04T15:18:17;98212.41;;;9.01;100.00
16030;BME280;34770;49.272;11.070;2023-01-04T15:20:43;98223.19;;;9.03;100.00